Time;durP1;ratioP1;P1;durP2;ratioP2;P2;SDS_P1;SDS_P2;PMS_P1;PMS_P2;Temp;Humidity;BMP_temperature;BMP_pressure;BME280_temperature;BME280_humidity;BME280_pressure;Samples;Min_cycle;Max_cycle;Signal;HPM_P1;HPM_P2
2021/12/03 05:00:35;;;;;;;22.27;11.60;;;0.60;99.90;;;;;;5844976;23;91112;-77
2021/12/03 05:03:00;;;;;;;24.15;11.80;;;0.60;99.90;;;;;;4940777;28;89059;-77
2021/12/03 05:05:31;;;;;;;20.88;11.48;;;0.50;99.90;;;;;;4937960;28;92996;-77
2021/12/03 05:08:01;;;;;;;20.42;10.95;;;0.40;99.90;;;;;;4940075;28;90255;-78
2021/12/03 05:10:30;;;;;;;19.88;10.32;;;0.40;99.90;;;;;;4939686;28;90240;-77
2021/12/03 05:12:59;;;;;;;22.30;11.48;;;0.40;99.90;;;;;;4960760;23;93141;-77
2021/12/03 05:15:25;;;;;;;23.17;11.23;;;0.40;99.90;;;;;;4939406;28;89376;-77
2021/12/03 05:17:50;;;;;;;22.25;11.68;;;0.30;99.90;;;;;;4941569;28;90268;-76
2021/12/03 05:20:16;;;;;;;24.27;11.60;;;0.40;99.90;;;;;;4942704;28;89185;-77
2021/12/03 05:22:42;;;;;;;27.75;11.27;;;0.40;99.90;;;;;;4939955;28;92622;-76
2021/12/03 05:25:08;;;;;;;19.55;10.85;;;0.40;99.90;;;;;;4939625;28;91774;-77
2021/12/03 05:27:34;;;;;;;22.85;12.80;;;0.50;99.90;;;;;;4943425;28;91588;-77
2021/12/03 05:30:00;;;;;;;25.77;11.88;;;0.50;99.90;;;;;;4944261;28;89361;-77
2021/12/03 05:32:25;;;;;;;22.67;11.57;;;0.50;99.90;;;;;;4941358;28;93047;-77
2021/12/03 05:34:51;;;;;;;21.85;11.40;;;0.50;99.90;;;;;;4941914;28;92697;-77
2021/12/03 05:37:19;;;;;;;23.23;12.25;;;0.60;99.90;;;;;;4940992;28;93722;-76
2021/12/03 05:39:45;;;;;;;22.92;11.65;;;0.60;99.90;;;;;;4941495;28;89245;-76
2021/12/03 05:42:10;;;;;;;24.30;12.45;;;0.60;99.90;;;;;;4942943;28;89661;-76
2021/12/03 05:44:36;;;;;;;25.52;12.60;;;0.60;99.90;;;;;;4940720;28;91021;-77
2021/12/03 05:47:03;;;;;;;21.45;11.73;;;0.50;99.90;;;;;;4943066;28;89359;-76
2021/12/03 05:49:29;;;;;;;24.40;11.50;;;0.50;99.90;;;;;;4940850;28;89298;-76
2021/12/03 05:51:55;;;;;;;22.23;11.65;;;0.30;99.90;;;;;;4941709;28;92978;-76
2021/12/03 05:54:21;;;;;;;22.40;12.65;;;0.30;99.90;;;;;;4939945;28;91681;-77
2021/12/03 05:56:47;;;;;;;23.48;11.88;;;0.10;99.90;;;;;;4940696;28;91436;-76
2021/12/03 05:59:13;;;;;;;23.70;12.35;;;0.00;99.90;;;;;;4940510;28;90722;-76
2021/12/03 06:01:39;;;;;;;21.65;11.38;;;0.00;99.90;;;;;;4942579;28;89617;-77
2021/12/03 06:04:04;;;;;;;23.27;12.02;;;-0.10;99.90;;;;;;4941880;28;89266;-77
2021/12/03 06:06:30;;;;;;;23.73;12.15;;;-0.10;99.90;;;;;;4940825;28;92824;-76
2021/12/03 06:08:58;;;;;;;24.65;12.25;;;-0.30;99.90;;;;;;4943138;28;89310;-76
2021/12/03 06:11:25;;;;;;;28.75;11.88;;;-0.20;99.90;;;;;;4940825;28;92755;-76
2021/12/03 06:13:51;;;;;;;23.27;11.48;;;-0.30;99.90;;;;;;4940185;28;92776;-76
2021/12/03 06:16:17;;;;;;;23.52;12.05;;;-0.30;99.90;;;;;;4941594;28;92447;-76
2021/12/03 06:18:42;;;;;;;25.70;12.40;;;-0.30;99.90;;;;;;4941959;28;89416;-76
2021/12/03 06:21:11;;;;;;;23.45;12.45;;;-0.40;99.90;;;;;;4942786;28;90286;-76
2021/12/03 06:23:37;;;;;;;24.38;12.38;;;-0.50;99.90;;;;;;4940247;28;92170;-76
2021/12/03 06:26:04;;;;;;;22.05;11.50;;;-0.50;99.90;;;;;;4941228;28;92513;-77
2021/12/03 06:28:30;;;;;;;25.80;11.52;;;-0.50;99.90;;;;;;4940579;28;89304;-76
2021/12/03 06:30:56;;;;;;;22.27;12.35;;;-0.60;99.90;;;;;;4939501;28;93260;-76
2021/12/03 06:33:22;;;;;;;22.88;11.90;;;-0.70;99.90;;;;;;4939366;28;92947;-76
2021/12/03 06:35:48;;;;;;;26.38;12.57;;;-0.80;99.90;;;;;;4937196;28;92310;-76
2021/12/03 06:38:15;;;;;;;32.20;13.25;;;-0.90;99.90;;;;;;4940438;28;89257;-76
2021/12/03 06:40:42;;;;;;;25.73;12.10;;;-1.00;99.90;;;;;;4941008;28;91517;-76
2021/12/03 06:43:08;;;;;;;26.40;12.23;;;-1.00;99.90;;;;;;4940157;28;91708;-76
2021/12/03 06:45:34;;;;;;;26.77;11.65;;;-1.00;99.90;;;;;;4941226;28;89715;-76
2021/12/03 06:48:00;;;;;;;27.60;11.43;;;-1.00;99.90;;;;;;4939093;28;90228;-77
2021/12/03 06:50:25;;;;;;;23.90;11.82;;;-1.00;99.90;;;;;;4941573;28;89375;-76
2021/12/03 06:53:13;;;;;;;24.98;11.73;;;-1.00;99.90;;;;;;4938961;28;93022;-76
2021/12/03 06:56:03;;;;;;;27.63;12.45;;;-1.00;99.90;;;;;;4939587;28;92688;-76
2021/12/03 06:58:29;;;;;;;29.35;12.15;;;-1.00;99.90;;;;;;4940531;28;89282;-79
2021/12/03 07:00:56;;;;;;;25.23;12.32;;;-1.00;99.90;;;;;;4941521;28;89313;-76
2021/12/03 07:03:21;;;;;;;26.02;11.65;;;-1.10;99.90;;;;;;4941080;28;89646;-77
2021/12/03 07:05:47;;;;;;;23.08;11.27;;;-1.10;99.90;;;;;;4940262;28;91285;-76
2021/12/03 07:08:13;;;;;;;22.58;10.05;;;-1.10;99.90;;;;;;4940979;28;89290;-77
2021/12/03 07:10:39;;;;;;;27.42;13.00;;;-1.00;99.90;;;;;;4940139;28;91444;-77
2021/12/03 07:13:05;;;;;;;24.98;12.18;;;-0.90;99.90;;;;;;4938018;28;92922;-76
2021/12/03 07:15:31;;;;;;;23.80;11.57;;;-0.80;99.90;;;;;;4939799;28;92853;-76
2021/12/03 07:17:57;;;;;;;23.13;12.40;;;-0.70;99.90;;;;;;4939766;28;89391;-76
2021/12/03 07:20:24;;;;;;;24.42;12.07;;;-0.70;99.90;;;;;;4936947;28;92455;-76
2021/12/03 07:22:52;;;;;;;26.48;12.40;;;-0.70;99.90;;;;;;4938022;28;89362;-77
2021/12/03 07:25:18;;;;;;;24.35;11.45;;;-0.90;99.90;;;;;;4936608;28;91488;-76
2021/12/03 07:27:44;;;;;;;23.20;11.30;;;-0.90;99.90;;;;;;4938291;28;89279;-76
2021/12/03 07:30:11;;;;;;;21.42;11.13;;;-0.90;99.90;;;;;;4938316;28;89895;-76
2021/12/03 07:32:38;;;;;;;23.65;10.90;;;-0.90;99.90;;;;;;4937512;28;89806;-76
2021/12/03 07:35:05;;;;;;;25.75;11.52;;;-0.80;99.90;;;;;;4936221;28;92414;-76
2021/12/03 07:37:30;;;;;;;20.98;11.25;;;-0.80;99.90;;;;;;4936973;28;90669;-78
2021/12/03 07:40:05;;;;;;;20.90;10.48;;;-0.80;99.90;;;;;;4936517;28;92848;-77
2021/12/03 07:42:32;;;;;;;21.50;10.82;;;-0.80;99.90;;;;;;4937571;28;90152;-77
2021/12/03 07:44:58;;;;;;;22.45;10.63;;;-0.80;99.90;;;;;;4937615;28;90231;-77
2021/12/03 07:47:24;;;;;;;25.52;10.85;;;-0.80;99.90;;;;;;4936397;28;89259;-76
2021/12/03 07:49:51;;;;;;;22.65;10.80;;;-0.80;99.90;;;;;;4938074;28;89267;-77
2021/12/03 07:52:18;;;;;;;21.50;11.00;;;-0.70;99.90;;;;;;4938564;28;89846;-76
2021/12/03 07:54:44;;;;;;;22.42;11.13;;;-0.60;99.90;;;;;;4941129;28;89510;-78
2021/12/03 07:57:10;;;;;;;24.23;11.63;;;-0.50;99.90;;;;;;4940311;28;89266;-76
2021/12/03 07:59:35;;;;;;;24.13;11.82;;;-0.50;99.90;;;;;;4938524;28;89781;-77
2021/12/03 08:02:01;;;;;;;20.58;11.95;;;-0.60;99.90;;;;;;4920339;28;93581;-77
2021/12/03 08:04:26;;;;;;;22.02;10.77;;;-0.50;99.90;;;;;;4921039;28;90749;-78
2021/12/03 08:06:54;;;;;;;20.80;11.27;;;-0.50;99.90;;;;;;4925229;28;89303;-78
2021/12/03 08:09:21;;;;;;;28.42;12.27;;;-0.50;99.90;;;;;;4924542;28;91950;-77
2021/12/03 08:11:46;;;;;;;21.98;11.13;;;-0.50;99.90;;;;;;4921214;28;93004;-77
2021/12/03 08:14:12;;;;;;;22.50;11.07;;;-0.50;99.90;;;;;;4922346;28;89665;-75
2021/12/03 08:16:39;;;;;;;21.73;10.80;;;-0.50;99.90;;;;;;4921724;28;89210;-76
2021/12/03 08:19:05;;;;;;;23.58;12.18;;;-0.40;99.90;;;;;;4920387;28;92771;-75
2021/12/03 08:21:30;;;;;;;22.77;11.48;;;-0.40;99.90;;;;;;4922020;28;90622;-76
2021/12/03 08:23:59;;;;;;;21.17;10.50;;;-0.40;99.90;;;;;;4921521;28;89755;-76
2021/12/03 08:26:26;;;;;;;21.27;10.25;;;-0.30;99.90;;;;;;4920947;28;90325;-75
2021/12/03 08:28:51;;;;;;;17.85;10.85;;;-0.20;99.90;;;;;;4921984;28;92566;-77
2021/12/03 08:31:18;;;;;;;20.00;10.05;;;-0.10;99.90;;;;;;4924154;28;92728;-75
2021/12/03 08:33:44;;;;;;;16.55;9.95;;;-0.10;99.90;;;;;;4925801;28;89222;-75
2021/12/03 08:36:10;;;;;;;17.55;9.27;;;-0.10;99.90;;;;;;4923356;28;89711;-74
2021/12/03 08:38:35;;;;;;;17.73;9.40;;;0.10;99.90;;;;;;4920718;28;91625;-76
2021/12/03 08:41:01;;;;;;;16.08;9.02;;;0.10;99.90;;;;;;4921163;28;93174;-77
2021/12/03 08:43:28;;;;;;;17.52;9.50;;;0.20;99.90;;;;;;4922169;28;90480;-75
2021/12/03 08:45:55;;;;;;;14.52;8.75;;;0.30;99.90;;;;;;4920616;28;89562;-76
2021/12/03 08:48:26;;;;;;;16.58;8.68;;;0.40;99.90;;;;;;4924384;28;91603;-76
2021/12/03 08:51:20;;;;;;;15.20;8.25;;;0.50;99.90;;;;;;4925997;28;90320;-76
2021/12/03 08:56:30;;;;;;;18.25;8.57;;;0.80;99.90;;;;;;4925597;28;89137;-77
2021/12/03 08:58:56;;;;;;;18.45;8.85;;;1.00;99.90;;;;;;4923660;28;91816;-77
2021/12/03 09:01:22;;;;;;;14.50;7.80;;;1.00;99.90;;;;;;4932158;28;92073;-77
2021/12/03 09:03:48;;;;;;;14.02;8.18;;;1.10;99.90;;;;;;4940846;28;92373;-77
2021/12/03 09:06:13;;;;;;;14.00;8.55;;;1.20;99.90;;;;;;4930685;28;89417;-76
2021/12/03 09:08:39;;;;;;;13.05;7.57;;;1.20;99.90;;;;;;4939843;28;88929;-74
2021/12/03 09:11:06;;;;;;;12.98;7.40;;;1.40;99.90;;;;;;4923674;28;90106;-78
2021/12/03 09:13:32;;;;;;;13.07;7.60;;;1.40;99.90;;;;;;4930561;28;89178;-75
2021/12/03 09:16:05;;;;;;;12.45;7.72;;;1.50;99.90;;;;;;4937126;28;90267;-78
2021/12/03 09:18:33;;;;;;;13.80;7.30;;;1.50;99.90;;;;;;4919829;28;92664;-75
2021/12/03 09:21:06;;;;;;;11.27;6.60;;;1.50;99.90;;;;;;4921437;28;89388;-78
2021/12/03 09:23:42;;;;;;;9.38;6.40;;;1.50;99.90;;;;;;4924218;28;91167;-75
2021/12/03 09:26:10;;;;;;;12.32;6.10;;;1.60;99.90;;;;;;4938147;28;89193;-75
2021/12/03 09:28:37;;;;;;;8.98;5.45;;;1.60;99.90;;;;;;4933836;28;89769;-74
2021/12/03 09:31:04;;;;;;;12.57;6.65;;;1.50;99.90;;;;;;4921205;28;89348;-74
2021/12/03 09:33:32;;;;;;;11.85;5.13;;;1.50;99.90;;;;;;4932061;28;89641;-74
2021/12/03 09:36:02;;;;;;;9.95;5.55;;;1.50;99.90;;;;;;4940648;28;89287;-75
2021/12/03 09:38:31;;;;;;;11.25;6.03;;;1.50;99.90;;;;;;4939323;28;94580;-74
2021/12/03 09:41:05;;;;;;;10.57;5.82;;;1.60;99.90;;;;;;4938581;28;93753;-75
2021/12/03 09:43:32;;;;;;;10.02;5.20;;;1.60;99.90;;;;;;4931201;28;89452;-74
2021/12/03 09:46:22;;;;;;;7.78;5.18;;;1.60;99.90;;;;;;4895058;28;91701;-75
2021/12/03 09:49:10;;;;;;;9.00;4.85;;;1.70;99.90;;;;;;4906553;28;91272;-75
2021/12/03 09:51:52;;;;;;;10.02;4.63;;;1.70;99.90;;;;;;4933121;28;91739;-75
2021/12/03 09:54:42;;;;;;;6.85;4.93;;;1.70;99.90;;;;;;4912307;28;92962;-75
2021/12/03 09:57:18;;;;;;;9.68;4.70;;;1.80;99.90;;;;;;4922906;28;89407;-75
2021/12/03 10:05:31;;;;;;;8.55;4.90;;;2.00;99.90;;;;;;4923041;28;89310;-75
2021/12/03 10:11:22;;;;;;;10.30;5.63;;;2.10;99.90;;;;;;4929936;28;89677;-75
2021/12/03 10:13:35;;;;;;;7.60;4.32;;;2.20;99.90;;;;;;4927585;28;91536;-75
2021/12/03 10:16:33;;;;;;;5.40;4.03;;;2.20;99.90;;;;;;4930661;28;89443;-75
2021/12/03 10:19:20;;;;;;;7.78;4.53;;;2.20;99.90;;;;;;4929051;28;89315;-76
2021/12/03 10:24:38;;;;;;;8.95;4.47;;;2.30;99.90;;;;;;4928713;28;89929;-78
2021/12/03 10:30:07;;;;;;;10.45;3.80;;;2.40;99.90;;;;;;4927446;28;89947;-77
2021/12/03 10:40:30;;;;;;;8.32;4.07;;;2.80;99.90;;;;;;4926107;28;89318;-78
2021/12/03 10:54:19;;;;;;;8.38;3.60;;;3.30;99.90;;;;;;4927732;28;89437;-78
2021/12/03 10:57:14;;;;;;;7.97;3.22;;;3.40;99.90;;;;;;4934754;28;89261;-78
2021/12/03 11:00:11;;;;;;;7.28;3.20;;;3.40;99.90;;;;;;4924809;28;90587;-78
2021/12/03 11:22:07;;;;;;;7.95;3.00;;;3.30;99.90;;;;;;4921158;28;89234;-76
2021/12/03 11:44:15;;;;;;;4.88;3.22;;;4.30;99.90;;;;;;4924739;28;89694;-76
2021/12/03 12:17:53;;;;;;;5.00;3.15;;;5.00;99.90;;;;;;4937268;28;89020;-78
2021/12/03 12:20:22;;;;;;;5.38;2.42;;;5.30;99.90;;;;;;4939892;28;89315;-80
2021/12/03 12:26:03;;;;;;;5.20;2.85;;;5.10;99.90;;;;;;4939463;28;90191;-83
2021/12/03 13:08:29;;;;;;;4.28;2.35;;;5.00;99.90;;;;;;4940208;28;89933;-77
2021/12/03 13:34:25;;;;;;;9.68;3.75;;;4.90;99.90;;;;;;4940331;28;89524;-74
2021/12/03 14:09:07;;;;;;;6.18;2.72;;;4.50;99.90;;;;;;4921050;28;89413;-76
2021/12/03 14:47:53;;;;;;;6.47;3.00;;;4.00;99.90;;;;;;4919749;28;89369;-74
2021/12/03 14:52:42;;;;;;;4.43;2.97;;;3.80;99.90;;;;;;4928654;28;89631;-75
2021/12/03 14:55:09;;;;;;;5.10;3.15;;;3.80;99.90;;;;;;4943295;28;88388;-73
2021/12/03 15:08:39;;;;;;;4.75;2.78;;;3.50;99.90;;;;;;4919516;28;89652;-73
2021/12/03 15:20:10;;;;;;;7.57;4.55;;;3.40;99.90;;;;;;4919642;28;89501;-74
2021/12/03 15:22:29;;;;;;;8.73;4.20;;;3.30;99.90;;;;;;4915035;28;89414;-73
2021/12/03 15:25:03;;;;;;;5.78;3.17;;;3.20;99.90;;;;;;4917911;28;89374;-73
2021/12/03 15:27:57;;;;;;;5.25;3.38;;;3.10;99.90;;;;;;4918513;28;89336;-75
2021/12/03 15:35:58;;;;;;;7.43;3.45;;;3.00;99.90;;;;;;4919651;28;89439;-79
2021/12/03 15:51:47;;;;;;;7.15;3.80;;;2.90;99.90;;;;;;4882408;28;89941;-74
2021/12/03 16:08:16;;;;;;;5.97;2.40;;;2.50;99.90;;;;;;4921364;28;90552;-75
2021/12/03 16:13:56;;;;;;;6.95;2.42;;;2.40;99.90;;;;;;4912346;28;89939;-78
2021/12/03 16:51:13;;;;;;;3.28;2.00;;;2.40;99.90;;;;;;4925207;28;88938;-76
2021/12/03 16:53:40;;;;;;;4.90;2.03;;;2.50;99.90;;;;;;4922144;28;89391;-80
2021/12/03 16:56:10;;;;;;;3.55;2.45;;;2.50;99.90;;;;;;4919625;28;91863;-74
2021/12/03 16:58:37;;;;;;;4.53;2.50;;;2.60;99.90;;;;;;4910216;28;90683;-74
2021/12/03 17:01:51;;;;;;;4.13;2.40;;;2.60;99.90;;;;;;4921373;28;91399;-73
2021/12/03 17:09:13;;;;;;;4.95;3.05;;;2.80;99.90;;;;;;4936261;28;89929;-73
2021/12/03 17:49:44;;;;;;;4.50;2.80;;;3.00;99.90;;;;;;4940888;28;89324;-77
2021/12/03 17:52:33;;;;;;;4.57;2.30;;;3.00;99.90;;;;;;4934917;28;92711;-75
2021/12/03 18:00:23;;;;;;;6.55;2.40;;;3.00;99.90;;;;;;4945331;28;89749;-78
2021/12/03 18:02:52;;;;;;;4.88;2.40;;;3.00;99.90;;;;;;4937616;28;92894;-78
2021/12/03 18:05:33;;;;;;;7.60;3.00;;;3.00;99.90;;;;;;4927541;28;90174;-78
2021/12/03 18:08:23;;;;;;;4.63;2.60;;;3.00;99.90;;;;;;4931663;28;89154;-80
2021/12/03 18:54:03;;;;;;;7.85;4.20;;;2.60;99.90;;;;;;4919590;28;89671;-78
2021/12/03 18:56:34;;;;;;;6.40;4.20;;;2.50;99.90;;;;;;4924080;28;92348;-78
2021/12/03 18:59:04;;;;;;;10.00;4.50;;;2.40;99.90;;;;;;4940145;28;89765;-77
2021/12/03 19:01:32;;;;;;;6.57;4.10;;;2.30;99.90;;;;;;4939882;28;89246;-77
2021/12/03 19:04:19;;;;;;;6.35;4.10;;;2.20;99.90;;;;;;4939473;28;88879;-75
2021/12/03 19:07:07;;;;;;;13.82;4.35;;;2.20;99.90;;;;;;4937796;28;93027;-76
2021/12/03 19:09:38;;;;;;;7.85;3.97;;;2.30;99.90;;;;;;4939437;28;89519;-76
2021/12/03 19:12:16;;;;;;;9.32;3.85;;;2.20;99.90;;;;;;4939384;28;90262;-76
2021/12/03 19:14:49;;;;;;;8.90;3.78;;;2.20;99.90;;;;;;4937001;28;92078;-76
2021/12/03 19:17:16;;;;;;;6.03;3.30;;;2.30;99.90;;;;;;4926909;28;92243;-76
2021/12/03 19:19:45;;;;;;;4.38;3.17;;;2.40;99.90;;;;;;4918542;28;91723;-76
2021/12/03 19:22:11;;;;;;;5.50;3.22;;;2.30;99.90;;;;;;4919751;28;89232;-77
2021/12/03 19:24:37;;;;;;;7.05;3.47;;;2.30;99.90;;;;;;4917733;28;91447;-76
2021/12/03 19:27:03;;;;;;;6.35;3.15;;;2.20;99.90;;;;;;4920017;28;90131;-76
2021/12/03 19:29:32;;;;;;;5.57;3.15;;;2.10;99.90;;;;;;4920358;28;89892;-76
2021/12/03 19:31:57;;;;;;;4.72;3.10;;;2.10;99.90;;;;;;4930969;28;89178;-76
2021/12/03 19:34:23;;;;;;;5.00;3.13;;;2.10;99.90;;;;;;4930405;28;89484;-76
2021/12/03 19:36:50;;;;;;;5.97;3.35;;;2.00;99.90;;;;;;4937083;28;93597;-75
2021/12/03 19:39:17;;;;;;;8.98;3.60;;;2.00;99.90;;;;;;4939268;28;89557;-76
2021/12/03 19:44:16;;;;;;;3.97;2.88;;;2.00;99.90;;;;;;4922538;28;89765;-75
2021/12/03 19:46:48;;;;;;;4.72;3.08;;;2.00;99.90;;;;;;4919466;28;90266;-75
2021/12/03 19:51:50;;;;;;;5.65;3.10;;;2.10;99.90;;;;;;4916706;28;89439;-76
2021/12/03 19:54:16;;;;;;;6.60;3.30;;;2.20;99.90;;;;;;4922744;28;89518;-76
2021/12/03 19:56:42;;;;;;;4.68;3.15;;;2.40;99.90;;;;;;4921287;28;89187;-76
2021/12/03 19:59:10;;;;;;;6.20;2.85;;;2.40;99.90;;;;;;4922273;28;90051;-76
2021/12/03 20:01:36;;;;;;;4.78;2.55;;;2.40;99.90;;;;;;4924543;28;90214;-76
2021/12/03 20:04:04;;;;;;;3.92;2.60;;;2.50;99.90;;;;;;4924152;28;89280;-76
2021/12/03 20:06:30;;;;;;;4.05;2.70;;;2.50;99.90;;;;;;4924331;28;89111;-76
2021/12/03 20:09:00;;;;;;;3.33;2.70;;;2.50;99.90;;;;;;4924405;28;89189;-77
2021/12/03 20:11:28;;;;;;;5.28;2.80;;;2.60;99.90;;;;;;4926203;28;89483;-75
2021/12/03 20:13:59;;;;;;;3.70;2.58;;;2.60;99.90;;;;;;4930504;28;91986;-76
2021/12/03 20:16:29;;;;;;;5.85;2.88;;;2.70;99.90;;;;;;4932769;28;90120;-76
2021/12/03 20:19:04;;;;;;;3.80;2.70;;;2.70;99.90;;;;;;4933417;28;89147;-78
2021/12/03 20:21:30;;;;;;;5.15;2.95;;;2.70;99.90;;;;;;4934885;28;89272;-75
2021/12/03 20:24:18;;;;;;;6.68;2.90;;;2.80;99.90;;;;;;4932967;28;90794;-76
2021/12/03 20:30:07;;;;;;;5.93;3.40;;;2.80;99.90;;;;;;4928506;28;89403;-76
2021/12/03 20:37:39;;;;;;;7.55;3.75;;;2.90;99.90;;;;;;4932666;28;90216;-76
2021/12/03 20:40:10;;;;;;;5.28;3.45;;;3.00;99.90;;;;;;4939739;28;89843;-76
2021/12/03 20:42:43;;;;;;;8.82;4.28;;;3.00;99.90;;;;;;4934566;28;89274;-76
2021/12/03 20:48:01;;;;;;;6.00;3.17;;;3.00;99.90;;;;;;4931881;28;89166;-76
2021/12/03 21:09:35;;;;;;;9.23;4.82;;;3.20;99.90;;;;;;4940713;28;89574;-78
2021/12/03 21:12:04;;;;;;;4.45;2.95;;;3.20;99.90;;;;;;4946097;28;91899;-78
2021/12/03 21:14:32;;;;;;;6.28;3.53;;;3.20;99.90;;;;;;4960905;28;89212;-78
2021/12/03 21:17:15;;;;;;;9.23;5.10;;;3.20;99.90;;;;;;4961039;28;88730;-78
2021/12/03 21:19:57;;;;;;;6.28;3.60;;;3.20;99.90;;;;;;4930357;28;90361;-77
2021/12/03 21:22:28;;;;;;;5.40;3.60;;;3.20;99.90;;;;;;4921513;28;89428;-77
2021/12/03 21:24:58;;;;;;;5.70;3.65;;;3.30;99.90;;;;;;4921995;28;89285;-77
2021/12/03 21:27:31;;;;;;;5.07;3.60;;;3.30;99.90;;;;;;4920894;28;89642;-77
2021/12/03 21:43:22;;;;;;;7.15;3.70;;;3.40;99.90;;;;;;4920823;28;89317;-77
2021/12/03 21:45:49;;;;;;;5.28;3.58;;;3.40;99.90;;;;;;4921184;28;90168;-78
2021/12/03 21:48:15;;;;;;;5.55;3.65;;;3.40;99.90;;;;;;4919750;28;92058;-77
2021/12/03 21:50:40;;;;;;;5.05;3.30;;;3.40;99.90;;;;;;4921520;28;89655;-77
2021/12/03 21:53:07;;;;;;;6.93;3.60;;;3.40;99.90;;;;;;4921172;28;90434;-77
2021/12/03 21:55:36;;;;;;;4.63;3.28;;;3.50;99.90;;;;;;4920993;28;89239;-77
2021/12/03 21:58:03;;;;;;;6.88;3.45;;;3.50;99.90;;;;;;4920689;28;89730;-78
2021/12/03 22:00:29;;;;;;;8.30;4.47;;;3.50;99.90;;;;;;4920706;28;89427;-77
2021/12/03 22:02:55;;;;;;;8.20;3.83;;;3.50;99.90;;;;;;4920633;28;89049;-77
2021/12/03 22:05:21;;;;;;;4.28;3.10;;;3.50;99.90;;;;;;4920172;28;89287;-77
2021/12/03 22:07:46;;;;;;;5.78;3.20;;;3.50;99.90;;;;;;4920357;28;89294;-78
2021/12/03 22:10:12;;;;;;;5.35;3.38;;;3.50;99.90;;;;;;4920335;28;90494;-77
2021/12/03 22:12:38;;;;;;;4.47;3.30;;;3.50;99.90;;;;;;4918276;28;92475;-78
2021/12/03 22:15:05;;;;;;;7.10;3.60;;;3.50;99.90;;;;;;4919276;28;89334;-77
2021/12/03 22:17:32;;;;;;;5.18;3.30;;;3.50;99.90;;;;;;4922776;28;90781;-75
2021/12/03 22:19:57;;;;;;;6.68;3.38;;;3.50;99.90;;;;;;4919184;28;93075;-77
2021/12/03 22:22:23;;;;;;;7.45;3.60;;;3.40;99.90;;;;;;4921428;28;91086;-77
2021/12/03 22:24:51;;;;;;;5.85;3.40;;;3.40;99.90;;;;;;4930330;28;89663;-77
2021/12/03 22:27:16;;;;;;;6.82;3.70;;;3.40;99.90;;;;;;4938625;28;92977;-77
2021/12/03 22:29:42;;;;;;;6.22;3.38;;;3.30;99.90;;;;;;4924600;28;93057;-78
2021/12/03 22:32:08;;;;;;;6.50;3.55;;;3.30;99.90;;;;;;4918374;28;92361;-77
2021/12/03 22:34:34;;;;;;;4.78;3.20;;;3.30;99.90;;;;;;4919311;28;90669;-78
2021/12/03 22:36:59;;;;;;;6.70;3.70;;;3.20;99.90;;;;;;4919191;28;92637;-77
2021/12/03 22:39:25;;;;;;;7.13;3.75;;;3.20;99.90;;;;;;4918386;28;92569;-77
2021/12/03 22:41:52;;;;;;;5.60;3.80;;;3.20;99.90;;;;;;4920490;28;89970;-78
2021/12/03 22:44:21;;;;;;;7.03;4.07;;;3.20;99.90;;;;;;4918187;28;89281;-77
2021/12/03 22:47:00;;;;;;;5.25;3.20;;;3.20;99.90;;;;;;4919401;28;89369;-77
2021/12/03 22:49:37;;;;;;;6.88;3.88;;;3.20;99.90;;;;;;4918097;28;93301;-77
2021/12/03 22:52:10;;;;;;;4.15;3.00;;;3.20;99.90;;;;;;4920175;28;89634;-77
2021/12/03 22:54:46;;;;;;;4.63;3.22;;;3.20;99.90;;;;;;4919675;28;89240;-77
2021/12/03 22:57:14;;;;;;;8.20;3.40;;;3.20;99.90;;;;;;4918700;28;92465;-77
2021/12/03 22:59:42;;;;;;;6.70;3.75;;;3.20;99.90;;;;;;4917828;28;94225;-77
2021/12/03 23:02:08;;;;;;;5.20;3.00;;;3.20;99.90;;;;;;4918139;28;93402;-78
2021/12/03 23:04:35;;;;;;;4.85;2.97;;;3.20;99.90;;;;;;4919116;28;89332;-77
2021/12/03 23:07:02;;;;;;;3.97;2.85;;;3.20;99.90;;;;;;4918153;28;91828;-77
2021/12/03 23:09:28;;;;;;;4.30;3.28;;;3.20;99.90;;;;;;4918119;28;92979;-77
2021/12/03 23:11:57;;;;;;;4.95;3.10;;;3.30;99.90;;;;;;4919213;28;89578;-77
2021/12/03 23:14:23;;;;;;;5.43;4.93;;;3.30;99.90;;;;;;4919408;28;89402;-76
2021/12/03 23:16:49;;;;;;;4.95;3.60;;;3.30;99.90;;;;;;4919912;28;90146;-77
2021/12/03 23:19:15;;;;;;;5.10;3.20;;;3.40;99.90;;;;;;4917655;28;91582;-76
2021/12/03 23:21:40;;;;;;;4.53;3.28;;;3.40;99.90;;;;;;4917434;28;91326;-77
2021/12/03 23:24:06;;;;;;;7.57;3.05;;;3.40;99.90;;;;;;4918555;28;90424;-77
2021/12/03 23:26:31;;;;;;;5.70;3.28;;;3.40;99.90;;;;;;4918938;28;89257;-76
2021/12/03 23:28:58;;;;;;;5.30;3.20;;;3.40;99.90;;;;;;4917453;28;92868;-76
2021/12/03 23:31:24;;;;;;;4.15;2.75;;;3.50;99.90;;;;;;4918935;28;89735;-76
2021/12/03 23:33:50;;;;;;;7.53;4.32;;;3.50;99.90;;;;;;4918725;28;89363;-76
2021/12/03 23:36:16;;;;;;;6.28;3.13;;;3.50;99.90;;;;;;4919059;28;89263;-76
2021/12/03 23:38:43;;;;;;;5.15;2.92;;;3.50;99.90;;;;;;4917363;28;92265;-76
2021/12/03 23:41:09;;;;;;;5.82;3.13;;;3.50;99.90;;;;;;4919159;28;89561;-77
2021/12/03 23:43:35;;;;;;;5.07;2.47;;;3.60;99.90;;;;;;4918927;28;90610;-77
2021/12/03 23:46:00;;;;;;;3.85;2.67;;;3.60;99.90;;;;;;4918652;28;89306;-76
2021/12/03 23:48:26;;;;;;;5.32;2.60;;;3.60;99.90;;;;;;4916937;28;93966;-77
2021/12/03 23:50:52;;;;;;;4.15;2.55;;;3.60;99.90;;;;;;4917383;28;92722;-77
2021/12/03 23:53:17;;;;;;;3.88;2.60;;;3.60;99.90;;;;;;4915939;28;89594;-77
2021/12/03 23:55:43;;;;;;;3.58;2.78;;;3.60;99.90;;;;;;4916069;28;89628;-77
2021/12/03 23:58:09;;;;;;;4.45;2.72;;;3.60;99.90;;;;;;4916300;28;91215;-77
